To NAV CANADA Home Page Login to a new session Search on AWWS site Feedback and Comments Disclaimer Vers la page française équivalente Tips FAQ What's new on the site To the Forecasts and Observations / NOTAM section To "File a Flight Plan" website Publications and other links Update of the User's profile FIC Telephone Numbers My Weather Data Folder Route Weather Data Regional Weather Data Local Weather Data To the Forecasts and Observations / NOTAM section
Request Generated 08/22/2017 at 03:26:25 UTC . Weather information available at that time is displayed.

METAR/TAF

NORTH BATTLEFORD/SK    (show WxCam)

METAR CYQW 220300Z AUTO 11002KT 9SM FEW085 10/06 A3011 RMK SLP210=
METAR CYQW 220200Z AUTO 00000KT 8SM CLR 17/08 A3010 RMK SLP206
DENSITY ALT 2200FT=
METAR CYQW 220100Z AUTO 33004KT 9SM CLR 20/05 A3010 RMK SLP206
DENSITY ALT 2500FT=

TAF CYQW 212338Z 2200/2212 31010KT P6SM SKC
BECMG 2202/2204 26005KT
FM220500 10006KT P6SM -SHRA BKN070
RMK FCST BASED ON AUTO OBS. NXT FCST BY 220600Z=
Your time UTC time
Weather data provided by Environment Canada and NAV CANADA